Time;durP1;ratioP1;P1;durP2;ratioP2;P2;SDS_P1;SDS_P2;PMS_P1;PMS_P2;Temp;Humidity;BMP_temperature;BMP_pressure;BME280_temperature;BME280_humidity;BME280_pressure;Samples;Min_cycle;Max_cycle;Signal;HPM_P1;HPM_P2
2021/10/22 00:01:44;;;;;;;8.13;2.50;;;7.50;99.90;;;;;;5012593;28;20267;-62
2021/10/22 00:04:12;;;;;;;7.63;2.57;;;7.40;99.90;;;;;;5012249;28;20297;-62
2021/10/22 00:06:40;;;;;;;6.93;2.30;;;7.40;99.90;;;;;;5012294;28;20233;-61
2021/10/22 00:09:11;;;;;;;8.77;2.00;;;7.40;99.90;;;;;;5012449;28;20194;-60
2021/10/22 00:11:43;;;;;;;5.33;1.80;;;7.40;99.90;;;;;;5012227;28;20198;-60
2021/10/22 00:14:14;;;;;;;7.80;2.30;;;7.40;99.90;;;;;;5012459;28;20222;-61
2021/10/22 00:16:42;;;;;;;9.03;2.60;;;7.40;99.90;;;;;;5012184;28;20306;-61
2021/10/22 00:19:11;;;;;;;5.37;2.20;;;7.50;99.90;;;;;;5012299;28;20210;-62
2021/10/22 00:21:39;;;;;;;6.17;2.20;;;7.40;99.90;;;;;;5012036;28;20285;-60
2021/10/22 00:24:07;;;;;;;5.87;2.00;;;7.30;99.90;;;;;;5011921;28;20676;-61
2021/10/22 00:26:35;;;;;;;7.17;2.33;;;7.30;99.90;;;;;;5012052;28;20220;-61
2021/10/22 00:29:04;;;;;;;10.03;2.77;;;7.30;99.90;;;;;;5012488;28;20295;-63
2021/10/22 00:31:34;;;;;;;9.53;2.60;;;7.30;99.90;;;;;;5011739;28;20240;-60
2021/10/22 00:34:02;;;;;;;10.00;2.70;;;7.30;99.90;;;;;;5012040;28;20239;-61
2021/10/22 00:36:30;;;;;;;10.47;2.87;;;7.30;99.90;;;;;;5011659;28;20375;-62
2021/10/22 00:38:58;;;;;;;6.90;2.33;;;7.20;99.90;;;;;;5011633;28;20301;-61
2021/10/22 00:41:26;;;;;;;9.50;2.50;;;7.20;99.90;;;;;;5011493;28;20302;-61
2021/10/22 00:43:54;;;;;;;4.77;1.97;;;7.20;99.90;;;;;;5012093;28;20208;-61
2021/10/22 00:46:25;;;;;;;7.07;2.47;;;7.20;99.90;;;;;;5011910;28;20198;-61
2021/10/22 00:48:55;;;;;;;12.57;2.97;;;7.10;99.90;;;;;;5011510;28;20187;-61
2021/10/22 00:51:24;;;;;;;5.93;2.00;;;7.10;99.90;;;;;;5011601;28;20270;-61
2021/10/22 00:53:52;;;;;;;8.87;2.30;;;7.10;99.90;;;;;;5011556;28;20202;-60
2021/10/22 00:56:20;;;;;;;11.03;2.77;;;7.10;99.90;;;;;;5011113;28;20208;-61
2021/10/22 00:58:48;;;;;;;8.57;2.20;;;7.10;99.90;;;;;;5011279;28;20800;-60
2021/10/22 01:01:16;;;;;;;5.90;2.00;;;7.10;99.90;;;;;;5011659;28;20633;-60
2021/10/22 01:03:44;;;;;;;8.97;2.03;;;7.20;99.90;;;;;;5011402;28;20716;-62
2021/10/22 01:06:13;;;;;;;8.70;1.90;;;7.30;99.90;;;;;;5011280;28;20741;-61
2021/10/22 01:08:41;;;;;;;5.17;1.50;;;7.20;99.90;;;;;;5011182;28;20298;-61
2021/10/22 01:11:09;;;;;;;6.33;2.27;;;7.10;99.90;;;;;;5011120;28;20768;-61
2021/10/22 01:13:39;;;;;;;7.87;2.17;;;7.30;99.90;;;;;;5011561;28;20213;-61
2021/10/22 01:16:07;;;;;;;9.30;2.33;;;7.20;99.90;;;;;;5011057;28;20686;-63
2021/10/22 01:18:35;;;;;;;8.00;2.10;;;7.30;99.90;;;;;;5011031;28;20750;-61
2021/10/22 01:21:06;;;;;;;8.30;2.23;;;7.30;99.90;;;;;;5011046;28;20558;-62
2021/10/22 01:23:34;;;;;;;9.37;2.23;;;7.30;99.90;;;;;;5011459;28;20230;-62
2021/10/22 01:26:02;;;;;;;5.53;1.73;;;7.30;99.90;;;;;;5011162;28;20198;-62
2021/10/22 01:28:30;;;;;;;9.73;2.00;;;7.30;99.90;;;;;;5011284;28;20229;-61
2021/10/22 01:30:59;;;;;;;9.30;1.87;;;7.20;99.90;;;;;;5011341;28;20264;-61
2021/10/22 01:33:27;;;;;;;7.90;2.07;;;7.20;99.90;;;;;;5011051;28;20207;-62
2021/10/22 01:35:55;;;;;;;10.13;2.70;;;7.20;99.90;;;;;;5011123;28;20277;-62
2021/10/22 01:38:25;;;;;;;7.40;1.97;;;7.20;99.90;;;;;;5011002;28;20677;-61
2021/10/22 01:40:55;;;;;;;6.33;2.00;;;7.30;99.90;;;;;;5011072;28;20278;-61
2021/10/22 01:43:25;;;;;;;8.17;1.93;;;7.20;99.90;;;;;;5011078;28;20252;-62
2021/10/22 01:45:53;;;;;;;4.80;1.50;;;7.20;99.90;;;;;;5011208;28;20305;-61
2021/10/22 01:48:21;;;;;;;9.20;2.30;;;7.20;99.90;;;;;;5011031;28;20208;-60
2021/10/22 01:50:49;;;;;;;7.43;1.97;;;7.20;99.90;;;;;;5010958;28;20232;-61
2021/10/22 01:53:18;;;;;;;10.23;2.70;;;7.20;99.90;;;;;;5011008;28;20248;-61
2021/10/22 01:55:48;;;;;;;6.13;2.20;;;7.20;99.90;;;;;;5011157;28;20297;-62
2021/10/22 01:58:16;;;;;;;12.00;1.90;;;7.20;99.90;;;;;;5010934;28;20237;-60
2021/10/22 02:00:45;;;;;;;6.67;2.23;;;7.30;99.90;;;;;;5010725;28;20685;-61
2021/10/22 02:03:13;;;;;;;7.57;1.73;;;7.20;99.90;;;;;;5010973;28;20206;-61
2021/10/22 02:05:41;;;;;;;11.00;2.07;;;7.20;99.90;;;;;;5011289;28;20289;-61
2021/10/22 02:08:09;;;;;;;7.97;2.17;;;7.20;99.90;;;;;;5014873;28;20606;-61
2021/10/22 02:10:37;;;;;;;5.03;1.90;;;7.10;99.90;;;;;;5014589;28;20296;-62
2021/10/22 02:13:07;;;;;;;5.97;2.40;;;7.10;99.90;;;;;;5014460;28;20221;-62
2021/10/22 02:15:34;;;;;;;9.00;2.63;;;7.10;99.90;;;;;;5014885;28;20218;-61
2021/10/22 02:18:02;;;;;;;9.97;2.37;;;7.00;99.90;;;;;;5014663;28;20759;-61
2021/10/22 02:20:30;;;;;;;9.83;2.70;;;7.00;99.90;;;;;;5014276;28;20222;-61
2021/10/22 02:22:58;;;;;;;10.27;2.73;;;7.00;99.90;;;;;;5014451;28;20201;-60
2021/10/22 02:25:27;;;;;;;6.30;2.20;;;7.00;99.90;;;;;;5014770;28;20691;-62
2021/10/22 02:27:55;;;;;;;9.60;2.33;;;7.00;99.90;;;;;;5014126;28;20662;-61
2021/10/22 02:30:25;;;;;;;6.90;2.83;;;7.00;99.90;;;;;;5014073;28;20218;-61
2021/10/22 02:32:52;;;;;;;10.17;2.80;;;7.10;99.90;;;;;;5014386;28;20216;-61
2021/10/22 02:35:20;;;;;;;7.73;2.93;;;7.10;99.90;;;;;;5013809;28;20245;-61
2021/10/22 02:37:48;;;;;;;7.10;2.57;;;7.10;99.90;;;;;;5013932;28;20311;-62
2021/10/22 02:40:17;;;;;;;8.90;2.87;;;7.10;99.90;;;;;;5013734;28;20301;-61
2021/10/22 02:42:45;;;;;;;6.73;2.77;;;7.00;99.90;;;;;;5013793;28;20632;-61
2021/10/22 02:45:14;;;;;;;9.13;2.93;;;7.00;99.90;;;;;;5014058;28;20300;-62
2021/10/22 02:47:44;;;;;;;9.87;3.40;;;6.90;99.90;;;;;;5014002;28;20216;-61
2021/10/22 02:50:12;;;;;;;6.93;2.87;;;6.90;99.90;;;;;;5014181;28;20255;-60
2021/10/22 02:52:40;;;;;;;7.13;2.77;;;6.80;99.90;;;;;;5013932;28;20210;-61
2021/10/22 02:55:08;;;;;;;6.80;2.50;;;6.80;99.90;;;;;;5013900;28;20255;-61
2021/10/22 02:57:37;;;;;;;7.17;2.30;;;6.80;99.90;;;;;;5013682;28;20205;-61
2021/10/22 03:00:06;;;;;;;9.17;2.40;;;6.80;99.90;;;;;;5013730;28;20306;-62
2021/10/22 03:02:34;;;;;;;8.03;2.03;;;6.90;99.90;;;;;;5013380;28;20728;-61
2021/10/22 03:05:04;;;;;;;4.57;2.27;;;6.80;99.90;;;;;;5013409;28;20712;-61
2021/10/22 03:07:32;;;;;;;7.33;2.73;;;6.70;99.90;;;;;;5013681;28;20273;-61
2021/10/22 03:10:00;;;;;;;6.87;2.90;;;6.80;99.90;;;;;;5014189;28;20213;-62
2021/10/22 03:12:28;;;;;;;7.03;2.70;;;6.80;99.90;;;;;;5013290;28;20695;-61
2021/10/22 03:14:56;;;;;;;6.80;2.47;;;6.80;99.90;;;;;;5013442;28;20213;-62
2021/10/22 03:17:24;;;;;;;6.23;3.03;;;6.80;99.90;;;;;;5012577;28;20640;-60
2021/10/22 03:19:51;;;;;;;7.50;2.30;;;6.80;99.90;;;;;;5013681;28;20226;-61
2021/10/22 03:22:21;;;;;;;7.73;2.57;;;6.70;99.90;;;;;;5012941;28;20772;-61
2021/10/22 03:24:49;;;;;;;10.43;2.50;;;6.70;99.90;;;;;;5013387;28;20212;-61
2021/10/22 03:27:20;;;;;;;7.47;2.87;;;6.70;99.90;;;;;;5013395;28;20203;-61
2021/10/22 03:29:48;;;;;;;10.47;3.17;;;6.70;99.90;;;;;;5013277;28;20196;-61
2021/10/22 03:32:16;;;;;;;6.73;3.27;;;6.70;99.90;;;;;;5013211;28;20206;-61
2021/10/22 03:34:44;;;;;;;7.60;3.03;;;6.60;99.90;;;;;;5013235;28;20317;-61
2021/10/22 03:37:12;;;;;;;7.40;2.43;;;6.60;99.90;;;;;;5012848;28;20301;-62
2021/10/22 03:39:41;;;;;;;10.90;3.00;;;6.70;99.90;;;;;;5012604;28;20585;-61
2021/10/22 03:42:09;;;;;;;7.90;2.80;;;6.70;99.90;;;;;;5012952;28;20206;-61
2021/10/22 03:44:38;;;;;;;9.43;2.90;;;6.70;99.90;;;;;;5013179;28;20209;-61
2021/10/22 03:47:06;;;;;;;8.30;3.03;;;6.70;99.90;;;;;;5012816;28;20676;-61
2021/10/22 03:49:34;;;;;;;10.50;2.93;;;6.60;99.90;;;;;;5013284;28;20201;-62
2021/10/22 03:52:03;;;;;;;8.30;2.77;;;6.60;99.90;;;;;;5012645;28;20216;-61
2021/10/22 03:54:30;;;;;;;9.67;2.63;;;6.60;99.90;;;;;;5012961;28;20313;-61
2021/10/22 03:57:00;;;;;;;7.20;2.60;;;6.50;99.90;;;;;;5012846;28;20286;-60
2021/10/22 03:59:27;;;;;;;9.90;3.20;;;6.50;99.90;;;;;;5012397;28;20724;-61
2021/10/22 04:01:55;;;;;;;5.67;2.17;;;6.50;99.90;;;;;;5012612;28;20300;-62
2021/10/22 04:04:28;;;;;;;9.40;2.80;;;6.50;99.90;;;;;;5012262;28;20608;-60
2021/10/22 04:06:57;;;;;;;8.17;2.30;;;6.50;99.90;;;;;;5012181;28;20285;-62
2021/10/22 04:09:26;;;;;;;7.77;2.27;;;6.40;99.90;;;;;;5012565;28;20207;-61
2021/10/22 04:11:54;;;;;;;10.43;3.10;;;6.40;99.90;;;;;;5012077;28;20572;-62
2021/10/22 04:14:23;;;;;;;4.40;2.20;;;6.50;99.90;;;;;;5012555;28;20287;-60
2021/10/22 04:16:52;;;;;;;7.00;2.80;;;6.50;99.90;;;;;;5012406;28;20211;-61
2021/10/22 04:19:20;;;;;;;8.83;2.50;;;6.50;99.90;;;;;;5012424;28;20300;-61
2021/10/22 04:21:48;;;;;;;6.70;2.43;;;6.60;99.90;;;;;;5012249;28;20292;-62
2021/10/22 04:24:18;;;;;;;7.47;2.30;;;6.40;99.90;;;;;;5012334;28;20237;-61
2021/10/22 04:26:46;;;;;;;8.37;2.77;;;6.40;99.90;;;;;;5011799;28;20206;-61
2021/10/22 04:29:13;;;;;;;6.17;2.50;;;6.50;99.90;;;;;;5011516;28;20202;-61
2021/10/22 04:31:43;;;;;;;7.77;3.00;;;6.40;99.90;;;;;;5012003;28;20210;-60
2021/10/22 04:34:11;;;;;;;7.40;2.57;;;6.50;99.90;;;;;;5011748;28;20736;-61
2021/10/22 04:36:40;;;;;;;8.60;2.70;;;6.40;99.90;;;;;;5011634;28;20634;-61
2021/10/22 04:42:05;;;;;;;4.63;2.20;;;6.40;99.90;;;;;;4950977;29;20314;-61
2021/10/22 04:44:33;;;;;;;8.30;2.30;;;6.40;99.90;;;;;;4998105;28;20293;-61
2021/10/22 04:47:03;;;;;;;6.50;2.30;;;6.40;99.90;;;;;;5011935;28;20263;-61
2021/10/22 04:49:31;;;;;;;7.20;2.50;;;6.30;99.90;;;;;;5012262;28;20224;-62
2021/10/22 04:51:59;;;;;;;5.03;2.40;;;6.40;99.90;;;;;;5011898;28;20304;-62
2021/10/22 04:54:27;;;;;;;10.07;3.13;;;6.40;99.90;;;;;;5011421;28;20211;-62
2021/10/22 04:56:55;;;;;;;9.43;2.77;;;6.40;99.90;;;;;;5011407;28;20301;-61
2021/10/22 04:59:22;;;;;;;6.30;2.60;;;6.40;99.90;;;;;;5011623;28;20263;-62
2021/10/22 05:01:50;;;;;;;8.60;2.53;;;6.40;99.90;;;;;;5011528;28;20292;-61
2021/10/22 05:04:20;;;;;;;7.70;2.77;;;6.40;99.90;;;;;;5011605;28;20211;-61
2021/10/22 05:06:48;;;;;;;5.17;2.40;;;6.40;99.90;;;;;;5011171;28;20205;-60
2021/10/22 05:09:15;;;;;;;6.53;2.90;;;6.40;99.90;;;;;;5011679;28;20202;-62
2021/10/22 05:11:43;;;;;;;7.13;2.90;;;6.30;99.90;;;;;;5011518;28;20624;-61
2021/10/22 05:14:11;;;;;;;8.03;2.97;;;6.30;99.90;;;;;;5011428;28;20288;-61
2021/10/22 05:16:40;;;;;;;7.80;2.83;;;6.30;99.90;;;;;;5011077;28;20672;-61
2021/10/22 05:19:08;;;;;;;7.40;2.80;;;6.30;99.90;;;;;;5011366;28;20237;-62
2021/10/22 05:21:37;;;;;;;8.23;3.30;;;6.20;99.90;;;;;;5010944;28;20237;-61
2021/10/22 05:24:05;;;;;;;5.97;2.53;;;6.30;99.90;;;;;;5011965;28;20297;-61
2021/10/22 05:26:33;;;;;;;9.33;3.10;;;6.20;99.90;;;;;;5012093;28;20216;-60
2021/10/22 05:29:01;;;;;;;7.70;3.13;;;6.30;99.90;;;;;;5012481;28;20296;-61
2021/10/22 05:31:28;;;;;;;5.17;2.53;;;6.30;99.90;;;;;;5012111;28;20572;-60
2021/10/22 05:33:56;;;;;;;10.20;3.20;;;6.30;99.90;;;;;;5011910;28;20233;-61
2021/10/22 05:36:24;;;;;;;8.03;2.93;;;6.40;99.90;;;;;;5012035;28;20276;-62
2021/10/22 05:38:54;;;;;;;4.97;3.00;;;6.30;99.90;;;;;;5011775;28;20209;-61
2021/10/22 05:41:22;;;;;;;6.53;3.17;;;6.40;99.90;;;;;;5013363;28;20221;-62
2021/10/22 05:43:50;;;;;;;8.80;3.20;;;6.40;99.90;;;;;;5016100;28;20220;-61
2021/10/22 05:46:19;;;;;;;10.30;3.07;;;6.40;99.90;;;;;;5015879;28;20295;-60
2021/10/22 05:48:47;;;;;;;7.47;3.20;;;6.50;99.90;;;;;;5016171;28;20200;-61
2021/10/22 05:51:15;;;;;;;10.10;3.30;;;6.40;99.90;;;;;;5015573;28;20683;-61
2021/10/22 05:53:43;;;;;;;9.93;3.60;;;6.40;99.90;;;;;;5015887;28;20256;-60
2021/10/22 05:56:13;;;;;;;8.33;3.13;;;6.40;99.90;;;;;;5015358;28;20204;-60
2021/10/22 05:58:41;;;;;;;8.53;3.77;;;6.40;99.90;;;;;;5015856;28;20234;-61
2021/10/22 06:01:08;;;;;;;9.63;3.47;;;6.40;99.90;;;;;;5015277;28;20319;-61
2021/10/22 06:03:54;;;;;;;5.27;2.97;;;6.50;99.90;;;;;;5015937;28;20248;-62
2021/10/22 06:06:22;;;;;;;11.13;3.70;;;6.50;99.90;;;;;;5015415;28;20285;-62
2021/10/22 06:08:50;;;;;;;12.33;3.70;;;6.40;99.90;;;;;;5015504;28;20613;-61
2021/10/22 06:11:20;;;;;;;9.40;3.40;;;6.50;99.90;;;;;;5014923;28;20241;-60
2021/10/22 06:13:48;;;;;;;11.23;3.97;;;6.50;99.90;;;;;;5015205;28;20194;-61
2021/10/22 06:16:16;;;;;;;8.57;3.30;;;6.50;99.90;;;;;;5014987;28;20692;-61
2021/10/22 06:18:48;;;;;;;9.03;4.03;;;6.50;99.90;;;;;;5015387;28;20229;-61
2021/10/22 06:21:24;;;;;;;9.87;3.30;;;6.50;99.90;;;;;;5015336;28;20232;-61
2021/10/22 06:23:55;;;;;;;9.30;3.83;;;6.50;99.90;;;;;;5015398;28;20224;-60
2021/10/22 06:26:27;;;;;;;8.53;3.53;;;6.50;99.90;;;;;;5015125;28;20213;-61
2021/10/22 06:28:55;;;;;;;6.83;3.87;;;6.50;99.90;;;;;;5012836;28;20201;-62
2021/10/22 06:31:23;;;;;;;10.20;4.07;;;6.60;99.90;;;;;;5014940;28;20205;-62
2021/10/22 06:33:52;;;;;;;7.53;4.03;;;6.60;99.90;;;;;;5014996;28;20270;-61
2021/10/22 06:36:20;;;;;;;6.07;3.53;;;6.70;99.90;;;;;;5015158;28;20193;-61
2021/10/22 06:38:48;;;;;;;9.90;4.30;;;6.70;99.90;;;;;;5015282;28;20205;-61
2021/10/22 06:41:16;;;;;;;7.50;4.03;;;6.70;99.90;;;;;;5014792;28;20224;-61
2021/10/22 06:43:46;;;;;;;8.33;3.87;;;6.80;99.90;;;;;;5014948;28;20237;-60
2021/10/22 06:46:15;;;;;;;9.60;3.47;;;6.80;99.90;;;;;;5014963;28;20297;-61
2021/10/22 06:48:43;;;;;;;8.77;4.03;;;6.90;99.90;;;;;;5014809;28;20206;-61
2021/10/22 06:51:14;;;;;;;10.20;3.67;;;6.90;99.90;;;;;;5014682;28;20277;-61
2021/10/22 06:53:43;;;;;;;10.47;3.27;;;7.00;99.90;;;;;;5014029;28;20225;-62
2021/10/22 06:56:11;;;;;;;6.80;3.70;;;7.00;99.90;;;;;;5015354;28;20393;-61
2021/10/22 06:58:39;;;;;;;7.93;3.43;;;7.10;99.90;;;;;;5014633;28;20208;-61
2021/10/22 07:01:08;;;;;;;6.23;3.53;;;7.20;99.90;;;;;;5014521;28;20257;-61
2021/10/22 07:03:41;;;;;;;12.00;4.10;;;7.20;99.90;;;;;;5009127;28;20567;-61
2021/10/22 07:08:56;;;;;;;8.60;3.70;;;7.30;99.90;;;;;;4994889;28;20277;-63
2021/10/22 07:11:26;;;;;;;7.30;3.23;;;7.30;99.90;;;;;;4994344;28;20203;-61
2021/10/22 07:13:54;;;;;;;7.60;3.20;;;7.40;99.90;;;;;;4994418;28;20649;-61
2021/10/22 07:16:27;;;;;;;7.10;3.10;;;7.50;99.90;;;;;;4994813;28;20202;-63
2021/10/22 07:18:55;;;;;;;8.23;3.10;;;7.60;99.90;;;;;;4994457;28;20198;-61
2021/10/22 07:21:23;;;;;;;9.70;3.47;;;7.60;99.90;;;;;;4992870;28;20250;-63
2021/10/22 07:23:51;;;;;;;8.57;2.93;;;7.60;99.90;;;;;;4993889;28;20307;-61
2021/10/22 07:26:20;;;;;;;9.33;3.47;;;7.60;99.90;;;;;;4993757;28;20290;-63
2021/10/22 07:28:49;;;;;;;7.47;3.20;;;7.70;99.90;;;;;;4993690;28;20577;-62
2021/10/22 07:31:17;;;;;;;8.27;3.47;;;7.80;99.90;;;;;;4993700;28;20324;-62
2021/10/22 07:33:47;;;;;;;7.17;3.17;;;7.90;99.90;;;;;;4993092;28;20314;-63
2021/10/22 07:36:16;;;;;;;7.33;2.93;;;7.90;99.90;;;;;;4993385;28;20188;-62
2021/10/22 07:38:45;;;;;;;7.03;3.27;;;7.90;99.90;;;;;;4993245;28;20235;-62
2021/10/22 07:41:14;;;;;;;7.73;3.47;;;8.10;99.90;;;;;;4993262;28;20214;-62
2021/10/22 07:43:43;;;;;;;8.67;3.00;;;8.10;99.90;;;;;;5011793;28;20739;-62
2021/10/22 07:46:12;;;;;;;8.40;3.13;;;8.10;99.90;;;;;;5012591;28;20210;-63
2021/10/22 07:48:41;;;;;;;4.60;2.50;;;8.20;99.90;;;;;;5012559;28;20194;-62
2021/10/22 07:51:11;;;;;;;7.43;2.93;;;8.20;99.90;;;;;;5012647;28;20297;-61
2021/10/22 07:53:39;;;;;;;9.53;2.87;;;8.30;99.90;;;;;;5012261;28;20305;-61
2021/10/22 07:56:07;;;;;;;6.77;2.90;;;8.40;99.90;;;;;;5012264;28;20214;-61
2021/10/22 07:58:36;;;;;;;5.37;2.57;;;8.40;99.90;;;;;;5012672;28;20203;-63
2021/10/22 08:01:04;;;;;;;6.63;2.50;;;8.60;99.90;;;;;;5012693;28;20226;-62
2021/10/22 08:03:33;;;;;;;8.73;3.10;;;8.70;99.90;;;;;;5012400;28;20207;-62
2021/10/22 08:06:01;;;;;;;4.60;2.53;;;8.70;99.90;;;;;;5012426;28;20256;-63
2021/10/22 08:08:31;;;;;;;5.90;2.60;;;8.80;99.90;;;;;;5012376;28;20214;-61
2021/10/22 08:11:00;;;;;;;8.90;2.80;;;8.70;99.90;;;;;;5012064;28;20190;-62
2021/10/22 08:13:28;;;;;;;8.63;3.23;;;8.80;99.90;;;;;;5012261;28;20207;-62
2021/10/22 08:15:57;;;;;;;5.27;2.70;;;8.80;99.90;;;;;;5012066;28;20634;-61
2021/10/22 08:18:26;;;;;;;5.83;2.40;;;8.90;99.90;;;;;;5012105;28;20608;-61
2021/10/22 08:20:57;;;;;;;8.87;2.73;;;9.00;99.90;;;;;;5012069;28;20269;-62
2021/10/22 08:23:25;;;;;;;8.57;2.73;;;9.00;99.90;;;;;;5012062;28;20282;-61
2021/10/22 08:25:54;;;;;;;5.57;2.43;;;9.10;99.90;;;;;;5011985;28;20301;-62
2021/10/22 08:28:22;;;;;;;6.03;2.67;;;9.20;99.90;;;;;;5012033;28;20225;-61
2021/10/22 08:30:56;;;;;;;6.97;2.60;;;9.30;99.90;;;;;;5012096;28;20203;-61
2021/10/22 08:33:25;;;;;;;7.03;2.60;;;9.40;99.90;;;;;;5012259;28;20222;-63
2021/10/22 08:35:53;;;;;;;4.23;2.33;;;9.50;99.90;;;;;;5011743;28;20326;-60
2021/10/22 08:38:21;;;;;;;8.33;2.43;;;9.50;99.90;;;;;;5012118;28;20241;-61
2021/10/22 08:40:49;;;;;;;4.13;2.10;;;9.60;99.90;;;;;;5011440;28;20241;-61
2021/10/22 08:43:18;;;;;;;5.60;2.00;;;9.50;99.90;;;;;;5011864;28;20207;-61
2021/10/22 08:45:48;;;;;;;7.13;2.20;;;9.60;99.90;;;;;;5011822;28;20581;-61
2021/10/22 08:48:16;;;;;;;4.43;2.53;;;9.70;99.90;;;;;;5012441;28;20341;-61
2021/10/22 08:50:44;;;;;;;9.83;3.07;;;9.70;99.90;;;;;;5013137;28;20294;-63
2021/10/22 08:53:12;;;;;;;6.20;2.13;;;9.80;99.90;;;;;;5012603;28;20297;-62
2021/10/22 08:55:40;;;;;;;6.17;2.07;;;9.80;99.90;;;;;;5012115;28;20230;-63
2021/10/22 08:58:08;;;;;;;4.27;2.10;;;10.10;99.90;;;;;;5012258;28;20322;-61
2021/10/22 09:00:37;;;;;;;5.27;2.17;;;10.40;99.90;;;;;;5012427;28;20309;-62
2021/10/22 09:03:10;;;;;;;7.90;2.40;;;10.50;99.90;;;;;;5012120;28;20230;-59
2021/10/22 09:05:39;;;;;;;9.37;2.33;;;10.50;99.90;;;;;;5009118;28;20203;-59
2021/10/22 09:08:07;;;;;;;4.97;2.10;;;10.50;99.90;;;;;;5008850;28;20683;-58
2021/10/22 09:10:37;;;;;;;6.13;2.00;;;10.50;99.90;;;;;;5009056;28;20317;-60
2021/10/22 09:13:07;;;;;;;6.70;2.20;;;10.50;99.90;;;;;;5008865;28;20430;-59
2021/10/22 09:15:39;;;;;;;6.17;2.13;;;10.70;99.90;;;;;;5008371;28;20187;-59
2021/10/22 09:18:16;;;;;;;5.33;1.93;;;10.90;99.90;;;;;;5009277;28;20686;-58
2021/10/22 09:20:52;;;;;;;9.57;2.40;;;11.10;99.90;;;;;;5009227;28;20297;-63
2021/10/22 09:23:26;;;;;;;4.77;2.40;;;11.00;99.90;;;;;;5009522;28;20313;-62
2021/10/22 09:26:14;;;;;;;9.00;2.47;;;10.90;99.90;;;;;;5009429;28;20220;-62
2021/10/22 09:28:43;;;;;;;10.80;2.60;;;10.80;99.90;;;;;;5008406;28;20199;-59
2021/10/22 09:31:13;;;;;;;5.63;2.23;;;10.70;99.90;;;;;;5009976;28;20289;-56
2021/10/22 09:33:52;;;;;;;7.37;2.07;;;10.50;99.90;;;;;;5009545;28;20669;-55
2021/10/22 09:36:32;;;;;;;4.43;2.00;;;10.50;99.90;;;;;;5009594;28;20611;-53
2021/10/22 09:39:07;;;;;;;5.20;2.00;;;10.40;99.90;;;;;;5009805;28;20218;-54
2021/10/22 09:41:37;;;;;;;6.37;2.13;;;10.50;99.90;;;;;;5010214;28;20207;-67
2021/10/22 09:44:24;;;;;;;3.80;1.80;;;10.60;99.90;;;;;;5012582;28;20191;-65
2021/10/22 09:47:13;;;;;;;7.20;2.13;;;10.50;99.90;;;;;;5012102;28;20248;-68
2021/10/22 09:49:44;;;;;;;8.50;1.93;;;10.60;99.90;;;;;;5010760;28;20187;-64
2021/10/22 09:52:18;;;;;;;6.27;2.00;;;10.50;99.90;;;;;;5010382;28;20226;-61
2021/10/22 09:54:46;;;;;;;5.37;1.93;;;10.60;99.90;;;;;;5009810;28;20238;-61
2021/10/22 09:57:16;;;;;;;5.20;1.80;;;10.70;99.90;;;;;;5009668;28;20241;-56
2021/10/22 09:59:45;;;;;;;6.40;2.13;;;10.70;99.90;;;;;;5009661;28;20198;-57
2021/10/22 10:02:14;;;;;;;7.07;1.87;;;10.70;99.90;;;;;;5009535;28;20309;-59
2021/10/22 10:04:42;;;;;;;6.57;2.30;;;10.70;99.90;;;;;;5009753;28;20209;-58
2021/10/22 10:07:10;;;;;;;6.30;2.00;;;10.60;99.90;;;;;;5009560;28;20571;-59
2021/10/22 10:09:40;;;;;;;5.33;2.00;;;10.50;99.90;;;;;;5008985;28;20601;-63
2021/10/22 10:12:08;;;;;;;6.20;1.83;;;10.50;99.90;;;;;;5008965;28;20203;-61
2021/10/22 10:14:36;;;;;;;3.57;1.80;;;10.50;99.90;;;;;;5009132;28;20249;-67
2021/10/22 10:17:05;;;;;;;5.47;2.00;;;10.50;99.90;;;;;;5009555;28;20226;-61
2021/10/22 10:19:38;;;;;;;4.53;2.00;;;10.70;99.90;;;;;;5009180;28;20203;-63
2021/10/22 10:22:08;;;;;;;5.90;1.80;;;10.70;99.90;;;;;;5009041;28;20243;-62
2021/10/22 10:24:39;;;;;;;6.50;2.20;;;10.80;99.90;;;;;;5008669;28;20212;-64
2021/10/22 10:27:10;;;;;;;6.33;1.60;;;10.80;99.90;;;;;;5010454;28;20587;-63
2021/10/22 10:29:40;;;;;;;6.33;1.53;;;10.80;99.90;;;;;;5013763;28;20197;-62
2021/10/22 10:32:10;;;;;;;9.20;2.13;;;10.80;99.90;;;;;;5015474;28;20226;-61
2021/10/22 10:34:42;;;;;;;6.70;2.13;;;10.90;99.90;;;;;;5015667;28;20238;-60
2021/10/22 10:37:28;;;;;;;8.60;1.80;;;10.90;99.90;;;;;;5015779;28;20297;-62
2021/10/22 10:40:06;;;;;;;5.53;2.00;;;11.10;99.90;;;;;;5015809;28;20233;-62
2021/10/22 10:42:39;;;;;;;4.90;1.90;;;11.30;99.90;;;;;;5015594;28;20211;-60
2021/10/22 10:45:10;;;;;;;5.57;1.63;;;11.50;99.90;;;;;;5012915;28;20195;-61
2021/10/22 10:47:44;;;;;;;4.80;1.60;;;11.60;99.90;;;;;;5015702;28;20278;-60
2021/10/22 10:50:18;;;;;;;5.03;1.90;;;11.60;99.90;;;;;;5015617;28;20241;-61
2021/10/22 10:52:52;;;;;;;6.57;1.63;;;11.70;99.90;;;;;;5015486;28;20357;-60
2021/10/22 10:55:28;;;;;;;5.43;1.60;;;11.60;99.90;;;;;;5015634;28;20190;-61
2021/10/22 10:58:02;;;;;;;5.03;1.50;;;11.60;99.90;;;;;;5015118;28;20301;-60
2021/10/22 11:00:33;;;;;;;6.37;1.73;;;11.50;99.90;;;;;;5015170;28;20211;-61
2021/10/22 11:03:15;;;;;;;6.00;1.63;;;11.60;99.90;;;;;;5015289;28;20215;-60
2021/10/22 11:06:09;;;;;;;6.50;1.63;;;11.70;99.90;;;;;;5015123;28;20274;-60
2021/10/22 11:08:47;;;;;;;4.00;1.60;;;11.80;99.90;;;;;;5014229;28;20624;-61
2021/10/22 11:11:35;;;;;;;5.60;1.57;;;11.70;99.90;;;;;;5015016;28;20240;-61
2021/10/22 11:14:21;;;;;;;4.83;1.70;;;11.60;99.90;;;;;;5014527;28;20238;-61
2021/10/22 11:16:57;;;;;;;6.07;1.80;;;11.40;99.90;;;;;;5015635;28;20194;-60
2021/10/22 11:19:36;;;;;;;7.80;2.10;;;11.30;99.90;;;;;;5014950;28;20187;-61
2021/10/22 11:22:11;;;;;;;4.87;1.70;;;11.40;99.90;;;;;;5014669;28;20628;-61
2021/10/22 11:24:40;;;;;;;4.50;2.20;;;11.30;99.90;;;;;;5014743;28;20205;-61
2021/10/22 11:27:09;;;;;;;4.33;1.60;;;11.20;99.90;;;;;;5014741;28;20213;-61
2021/10/22 11:29:39;;;;;;;5.33;1.70;;;11.10;99.90;;;;;;5014768;28;20199;-62
2021/10/22 11:32:12;;;;;;;7.90;1.77;;;11.20;99.90;;;;;;5014783;28;20413;-60
2021/10/22 11:34:41;;;;;;;7.47;1.70;;;11.30;99.90;;;;;;5014640;28;20262;-60
2021/10/22 11:37:14;;;;;;;5.73;1.70;;;11.40;99.90;;;;;;5014187;28;20206;-60
2021/10/22 11:39:44;;;;;;;5.60;1.97;;;11.80;99.90;;;;;;5014063;28;20194;-59
2021/10/22 11:42:24;;;;;;;5.60;1.73;;;11.50;99.90;;;;;;5014444;28;20273;-59
2021/10/22 11:44:57;;;;;;;7.10;1.93;;;11.50;99.90;;;;;;5013404;28;20202;-64
2021/10/22 11:47:32;;;;;;;4.07;1.80;;;11.50;99.90;;;;;;5011352;28;20201;-60
2021/10/22 11:50:18;;;;;;;4.27;1.40;;;11.50;99.90;;;;;;5011867;28;20187;-60
2021/10/22 11:52:49;;;;;;;3.27;1.50;;;11.50;99.90;;;;;;5011523;28;20231;-60
2021/10/22 11:55:22;;;;;;;4.13;1.77;;;11.50;99.90;;;;;;5011171;28;20544;-61
2021/10/22 11:57:51;;;;;;;6.53;1.60;;;11.40;99.90;;;;;;5011264;28;20234;-63
2021/10/22 12:00:19;;;;;;;5.20;1.90;;;11.30;99.90;;;;;;5011342;28;20209;-60
2021/10/22 12:02:47;;;;;;;5.83;1.70;;;11.30;99.90;;;;;;5011075;28;20253;-59
2021/10/22 12:05:16;;;;;;;3.00;1.60;;;11.20;99.90;;;;;;5011159;28;20207;-60
2021/10/22 12:07:45;;;;;;;5.63;2.20;;;11.20;99.90;;;;;;5010736;28;20202;-60
2021/10/22 12:10:15;;;;;;;4.43;2.10;;;11.30;99.90;;;;;;5010527;28;20231;-59
2021/10/22 12:12:47;;;;;;;5.63;1.90;;;11.30;99.90;;;;;;5011090;28;20213;-63
2021/10/22 12:15:19;;;;;;;4.27;1.57;;;11.40;99.90;;;;;;5010964;28;20213;-58
2021/10/22 12:17:52;;;;;;;3.70;1.60;;;11.50;99.90;;;;;;5010489;28;20587;-59
2021/10/22 12:20:21;;;;;;;6.57;2.07;;;11.60;99.90;;;;;;5011050;28;20252;-60
2021/10/22 12:22:56;;;;;;;5.83;1.77;;;11.80;99.90;;;;;;5010863;28;20245;-64
2021/10/22 12:25:27;;;;;;;3.77;1.50;;;11.80;99.90;;;;;;5011015;28;20186;-62
2021/10/22 12:27:56;;;;;;;3.93;1.70;;;11.90;99.90;;;;;;5011083;28;20279;-62
2021/10/22 12:30:25;;;;;;;7.70;1.43;;;11.90;99.90;;;;;;5010853;28;20288;-63
2021/10/22 12:32:54;;;;;;;5.57;1.77;;;11.80;99.90;;;;;;5010603;28;20745;-64
2021/10/22 12:35:28;;;;;;;3.00;1.40;;;11.80;99.90;;;;;;5010348;28;20298;-59
2021/10/22 12:38:02;;;;;;;5.23;2.00;;;11.80;99.90;;;;;;5010687;28;20191;-59
2021/10/22 12:40:33;;;;;;;7.53;1.90;;;11.80;99.90;;;;;;5010545;28;20190;-59
2021/10/22 12:43:19;;;;;;;6.13;1.43;;;11.90;99.90;;;;;;5010737;28;20187;-59
2021/10/22 12:45:52;;;;;;;6.73;1.90;;;11.90;99.90;;;;;;5010442;28;20213;-58
2021/10/22 12:48:22;;;;;;;4.77;1.70;;;11.80;99.90;;;;;;5010831;28;20614;-59
2021/10/22 12:50:51;;;;;;;5.67;1.63;;;11.80;99.90;;;;;;5009104;28;20186;-59
2021/10/22 12:53:28;;;;;;;4.83;1.40;;;11.70;99.90;;;;;;5009650;28;20298;-60
2021/10/22 12:56:04;;;;;;;8.33;1.90;;;11.80;99.90;;;;;;5010010;28;20277;-59
2021/10/22 12:58:32;;;;;;;7.07;1.50;;;11.90;99.90;;;;;;5010085;28;20275;-59
2021/10/22 13:01:14;;;;;;;4.20;1.70;;;12.00;99.90;;;;;;5009697;28;20562;-60
2021/10/22 13:03:44;;;;;;;2.53;1.30;;;12.00;99.90;;;;;;5009375;28;20786;-58
2021/10/22 13:06:14;;;;;;;6.07;1.47;;;12.10;99.90;;;;;;5009770;28;20206;-60
2021/10/22 13:08:50;;;;;;;6.30;1.80;;;12.00;99.90;;;;;;5009923;28;20187;-62
2021/10/22 13:11:33;;;;;;;6.07;1.93;;;11.90;99.90;;;;;;5009681;28;20245;-60
2021/10/22 13:22:19;;;;;;;2.80;1.30;;;11.60;99.90;;;;;;5009905;28;20191;-56